sensor_id;sensor_type;location;lat;lon;timestamp;P1;durP1;ratioP1;P2;durP2;ratioP2
20505;SDS011;10411;48.148;7.704;2023-02-12T00:02:18;24.40;;;22.50;;
20505;SDS011;10411;48.148;7.704;2023-02-12T00:04:44;25.27;;;23.17;;
20505;SDS011;10411;48.148;7.704;2023-02-12T00:07:12;25.13;;;23.17;;
20505;SDS011;10411;48.148;7.704;2023-02-12T00:09:38;25.03;;;23.03;;
20505;SDS011;10411;48.148;7.704;2023-02-12T00:12:04;27.70;;;25.23;;
20505;SDS011;10411;48.148;7.704;2023-02-12T00:14:30;26.07;;;24.03;;
20505;SDS011;10411;48.148;7.704;2023-02-12T00:16:56;24.07;;;22.23;;
20505;SDS011;10411;48.148;7.704;2023-02-12T00:19:22;24.40;;;22.50;;
20505;SDS011;10411;48.148;7.704;2023-02-12T00:21:48;25.00;;;22.90;;
20505;SDS011;10411;48.148;7.704;2023-02-12T00:24:14;25.13;;;22.93;;
20505;SDS011;10411;48.148;7.704;2023-02-12T00:26:40;26.10;;;23.90;;
20505;SDS011;10411;48.148;7.704;2023-02-12T00:29:06;25.77;;;23.57;;
20505;SDS011;10411;48.148;7.704;2023-02-12T00:31:32;25.17;;;23.17;;
20505;SDS011;10411;48.148;7.704;2023-02-12T00:33:58;25.87;;;23.77;;
20505;SDS011;10411;48.148;7.704;2023-02-12T00:36:25;24.23;;;22.43;;
20505;SDS011;10411;48.148;7.704;2023-02-12T00:38:52;24.60;;;22.80;;
20505;SDS011;10411;48.148;7.704;2023-02-12T00:41:18;24.50;;;22.57;;
20505;SDS011;10411;48.148;7.704;2023-02-12T00:43:44;25.23;;;23.13;;
20505;SDS011;10411;48.148;7.704;2023-02-12T00:46:11;25.30;;;23.30;;
20505;SDS011;10411;48.148;7.704;2023-02-12T00:48:37;26.63;;;24.43;;
20505;SDS011;10411;48.148;7.704;2023-02-12T00:51:04;25.37;;;23.37;;
20505;SDS011;10411;48.148;7.704;2023-02-12T00:53:30;24.90;;;22.93;;
20505;SDS011;10411;48.148;7.704;2023-02-12T00:55:56;24.53;;;22.63;;
20505;SDS011;10411;48.148;7.704;2023-02-12T00:58:22;24.57;;;22.77;;
20505;SDS011;10411;48.148;7.704;2023-02-12T01:00:48;26.03;;;23.93;;
20505;SDS011;10411;48.148;7.704;2023-02-12T01:03:14;25.27;;;23.27;;
20505;SDS011;10411;48.148;7.704;2023-02-12T01:05:41;26.07;;;23.87;;
20505;SDS011;10411;48.148;7.704;2023-02-12T01:08:07;26.37;;;24.10;;
20505;SDS011;10411;48.148;7.704;2023-02-12T01:10:33;26.77;;;24.37;;
20505;SDS011;10411;48.148;7.704;2023-02-12T01:12:59;25.03;;;23.03;;
20505;SDS011;10411;48.148;7.704;2023-02-12T01:15:24;25.50;;;23.43;;
20505;SDS011;10411;48.148;7.704;2023-02-12T01:17:51;25.73;;;23.63;;
20505;SDS011;10411;48.148;7.704;2023-02-12T01:20:17;26.57;;;24.37;;
20505;SDS011;10411;48.148;7.704;2023-02-12T01:22:44;26.43;;;24.23;;
20505;SDS011;10411;48.148;7.704;2023-02-12T01:25:10;26.13;;;24.00;;
20505;SDS011;10411;48.148;7.704;2023-02-12T01:27:36;25.70;;;23.67;;
20505;SDS011;10411;48.148;7.704;2023-02-12T01:30:03;24.47;;;22.67;;
20505;SDS011;10411;48.148;7.704;2023-02-12T01:32:29;24.83;;;22.90;;
20505;SDS011;10411;48.148;7.704;2023-02-12T01:34:55;25.20;;;23.27;;
20505;SDS011;10411;48.148;7.704;2023-02-12T01:37:21;25.50;;;23.40;;
20505;SDS011;10411;48.148;7.704;2023-02-12T01:39:47;24.47;;;22.50;;
20505;SDS011;10411;48.148;7.704;2023-02-12T01:42:13;25.13;;;23.23;;
20505;SDS011;10411;48.148;7.704;2023-02-12T01:44:43;25.13;;;23.13;;
20505;SDS011;10411;48.148;7.704;2023-02-12T01:47:11;25.20;;;23.30;;
20505;SDS011;10411;48.148;7.704;2023-02-12T01:49:40;27.27;;;25.07;;
20505;SDS011;10411;48.148;7.704;2023-02-12T01:54:33;27.37;;;24.90;;
20505;SDS011;10411;48.148;7.704;2023-02-12T01:57:00;25.43;;;23.37;;
20505;SDS011;10411;48.148;7.704;2023-02-12T01:59:27;25.87;;;23.77;;
20505;SDS011;10411;48.148;7.704;2023-02-12T02:01:54;27.97;;;25.67;;
20505;SDS011;10411;48.148;7.704;2023-02-12T02:04:20;26.10;;;23.93;;
20505;SDS011;10411;48.148;7.704;2023-02-12T02:06:51;27.23;;;24.93;;
20505;SDS011;10411;48.148;7.704;2023-02-12T02:09:18;25.40;;;23.33;;
20505;SDS011;10411;48.148;7.704;2023-02-12T02:11:44;25.80;;;23.70;;
20505;SDS011;10411;48.148;7.704;2023-02-12T02:14:29;24.03;;;22.17;;
20505;SDS011;10411;48.148;7.704;2023-02-12T02:27:35;25.20;;;23.20;;
20505;SDS011;10411;48.148;7.704;2023-02-12T02:32:54;29.97;;;27.37;;
20505;SDS011;10411;48.148;7.704;2023-02-12T02:35:23;33.97;;;30.73;;
20505;SDS011;10411;48.148;7.704;2023-02-12T02:37:56;29.83;;;27.23;;
20505;SDS011;10411;48.148;7.704;2023-02-12T02:40:26;31.63;;;28.73;;
20505;SDS011;10411;48.148;7.704;2023-02-12T02:43:10;31.33;;;28.43;;
20505;SDS011;10411;48.148;7.704;2023-02-12T02:45:40;28.43;;;26.00;;
20505;SDS011;10411;48.148;7.704;2023-02-12T02:50:55;26.00;;;23.90;;
20505;SDS011;10411;48.148;7.704;2023-02-12T02:53:56;30.23;;;27.63;;
20505;SDS011;10411;48.148;7.704;2023-02-12T02:56:15;27.00;;;24.70;;
20505;SDS011;10411;48.148;7.704;2023-02-12T02:58:43;27.80;;;25.50;;
20505;SDS011;10411;48.148;7.704;2023-02-12T03:01:21;25.87;;;23.87;;
20505;SDS011;10411;48.148;7.704;2023-02-12T03:03:50;26.00;;;23.90;;
20505;SDS011;10411;48.148;7.704;2023-02-12T03:06:24;25.77;;;23.73;;
20505;SDS011;10411;48.148;7.704;2023-02-12T03:08:55;25.57;;;23.40;;
20505;SDS011;10411;48.148;7.704;2023-02-12T03:11:23;25.50;;;23.47;;
20505;SDS011;10411;48.148;7.704;2023-02-12T03:13:55;26.20;;;24.20;;
20505;SDS011;10411;48.148;7.704;2023-02-12T03:16:24;27.00;;;24.90;;
20505;SDS011;10411;48.148;7.704;2023-02-12T03:19:04;25.70;;;23.70;;
20505;SDS011;10411;48.148;7.704;2023-02-12T03:21:36;25.60;;;23.73;;
20505;SDS011;10411;48.148;7.704;2023-02-12T03:24:10;25.63;;;23.67;;
20505;SDS011;10411;48.148;7.704;2023-02-12T03:26:58;24.47;;;22.57;;
20505;SDS011;10411;48.148;7.704;2023-02-12T03:29:25;25.57;;;23.57;;
20505;SDS011;10411;48.148;7.704;2023-02-12T03:37:04;26.10;;;24.10;;
20505;SDS011;10411;48.148;7.704;2023-02-12T03:42:23;26.73;;;24.63;;
20505;SDS011;10411;48.148;7.704;2023-02-12T03:47:38;28.83;;;26.43;;
20505;SDS011;10411;48.148;7.704;2023-02-12T03:50:13;25.67;;;23.77;;
20505;SDS011;10411;48.148;7.704;2023-02-12T03:52:41;29.17;;;26.67;;
20505;SDS011;10411;48.148;7.704;2023-02-12T03:55:07;30.07;;;27.60;;
20505;SDS011;10411;48.148;7.704;2023-02-12T03:57:36;27.80;;;25.60;;
20505;SDS011;10411;48.148;7.704;2023-02-12T04:00:08;26.67;;;24.57;;
20505;SDS011;10411;48.148;7.704;2023-02-12T04:02:34;25.40;;;23.37;;
20505;SDS011;10411;48.148;7.704;2023-02-12T04:05:04;25.50;;;23.50;;
20505;SDS011;10411;48.148;7.704;2023-02-12T04:07:30;26.83;;;24.63;;
20505;SDS011;10411;48.148;7.704;2023-02-12T04:09:56;25.90;;;23.83;;
20505;SDS011;10411;48.148;7.704;2023-02-12T04:15:05;25.20;;;23.20;;
20505;SDS011;10411;48.148;7.704;2023-02-12T04:17:40;25.13;;;23.17;;
20505;SDS011;10411;48.148;7.704;2023-02-12T04:23:30;24.63;;;22.60;;
20505;SDS011;10411;48.148;7.704;2023-02-12T04:25:56;24.87;;;22.87;;
20505;SDS011;10411;48.148;7.704;2023-02-12T04:28:35;23.87;;;22.10;;
20505;SDS011;10411;48.148;7.704;2023-02-12T04:31:06;23.10;;;21.50;;
20505;SDS011;10411;48.148;7.704;2023-02-12T04:33:39;22.70;;;21.20;;
20505;SDS011;10411;48.148;7.704;2023-02-12T04:36:14;23.40;;;21.80;;
20505;SDS011;10411;48.148;7.704;2023-02-12T04:38:52;23.67;;;21.87;;
20505;SDS011;10411;48.148;7.704;2023-02-12T04:41:20;22.13;;;20.53;;
20505;SDS011;10411;48.148;7.704;2023-02-12T04:43:46;23.10;;;21.50;;
20505;SDS011;10411;48.148;7.704;2023-02-12T04:46:12;24.63;;;22.80;;
20505;SDS011;10411;48.148;7.704;2023-02-12T04:48:45;23.87;;;22.00;;
20505;SDS011;10411;48.148;7.704;2023-02-12T04:51:12;25.90;;;23.77;;
20505;SDS011;10411;48.148;7.704;2023-02-12T04:53:38;25.07;;;23.07;;
20505;SDS011;10411;48.148;7.704;2023-02-12T04:56:05;25.17;;;23.27;;
20505;SDS011;10411;48.148;7.704;2023-02-12T04:58:31;25.90;;;23.93;;
20505;SDS011;10411;48.148;7.704;2023-02-12T05:00:57;25.03;;;23.13;;
20505;SDS011;10411;48.148;7.704;2023-02-12T05:03:23;24.20;;;22.50;;
20505;SDS011;10411;48.148;7.704;2023-02-12T05:05:49;30.70;;;28.00;;
20505;SDS011;10411;48.148;7.704;2023-02-12T05:08:15;30.53;;;27.83;;
20505;SDS011;10411;48.148;7.704;2023-02-12T05:10:41;28.13;;;25.83;;
20505;SDS011;10411;48.148;7.704;2023-02-12T05:13:07;26.70;;;24.50;;
20505;SDS011;10411;48.148;7.704;2023-02-12T05:15:33;29.60;;;27.03;;
20505;SDS011;10411;48.148;7.704;2023-02-12T05:17:59;26.00;;;24.00;;
20505;SDS011;10411;48.148;7.704;2023-02-12T05:20:25;28.27;;;25.77;;
20505;SDS011;10411;48.148;7.704;2023-02-12T05:22:52;26.37;;;24.17;;
20505;SDS011;10411;48.148;7.704;2023-02-12T05:25:18;24.80;;;22.87;;
20505;SDS011;10411;48.148;7.704;2023-02-12T05:27:44;24.43;;;22.53;;
20505;SDS011;10411;48.148;7.704;2023-02-12T05:30:10;25.40;;;23.30;;
20505;SDS011;10411;48.148;7.704;2023-02-12T05:32:36;26.07;;;23.90;;
20505;SDS011;10411;48.148;7.704;2023-02-12T05:35:02;23.77;;;22.07;;
20505;SDS011;10411;48.148;7.704;2023-02-12T05:37:28;23.80;;;22.10;;
20505;SDS011;10411;48.148;7.704;2023-02-12T05:39:55;24.30;;;22.50;;
20505;SDS011;10411;48.148;7.704;2023-02-12T05:42:21;24.20;;;22.40;;
20505;SDS011;10411;48.148;7.704;2023-02-12T05:44:47;25.00;;;23.20;;
20505;SDS011;10411;48.148;7.704;2023-02-12T05:47:13;23.97;;;22.20;;
20505;SDS011;10411;48.148;7.704;2023-02-12T05:49:39;22.90;;;21.20;;
20505;SDS011;10411;48.148;7.704;2023-02-12T05:52:06;22.10;;;20.60;;
20505;SDS011;10411;48.148;7.704;2023-02-12T05:54:32;23.43;;;21.77;;
20505;SDS011;10411;48.148;7.704;2023-02-12T05:56:58;23.23;;;21.63;;
20505;SDS011;10411;48.148;7.704;2023-02-12T05:59:24;23.27;;;21.57;;
20505;SDS011;10411;48.148;7.704;2023-02-12T06:01:50;23.90;;;22.20;;
20505;SDS011;10411;48.148;7.704;2023-02-12T06:04:21;24.27;;;22.47;;
20505;SDS011;10411;48.148;7.704;2023-02-12T06:06:48;24.93;;;22.93;;
20505;SDS011;10411;48.148;7.704;2023-02-12T06:09:14;23.47;;;21.87;;
20505;SDS011;10411;48.148;7.704;2023-02-12T06:11:40;23.57;;;21.80;;
20505;SDS011;10411;48.148;7.704;2023-02-12T06:14:07;24.60;;;22.67;;
20505;SDS011;10411;48.148;7.704;2023-02-12T06:16:33;23.80;;;21.90;;
20505;SDS011;10411;48.148;7.704;2023-02-12T06:19:00;23.33;;;21.63;;
20505;SDS011;10411;48.148;7.704;2023-02-12T06:21:26;25.10;;;23.00;;
20505;SDS011;10411;48.148;7.704;2023-02-12T06:23:52;24.63;;;22.70;;
20505;SDS011;10411;48.148;7.704;2023-02-12T06:26:19;24.73;;;22.83;;
20505;SDS011;10411;48.148;7.704;2023-02-12T06:28:45;23.80;;;21.90;;
20505;SDS011;10411;48.148;7.704;2023-02-12T06:31:19;24.37;;;22.37;;
20505;SDS011;10411;48.148;7.704;2023-02-12T06:33:45;24.57;;;22.73;;
20505;SDS011;10411;48.148;7.704;2023-02-12T06:36:11;24.93;;;23.03;;
20505;SDS011;10411;48.148;7.704;2023-02-12T06:38:37;25.10;;;23.20;;
20505;SDS011;10411;48.148;7.704;2023-02-12T06:41:03;26.87;;;24.63;;
20505;SDS011;10411;48.148;7.704;2023-02-12T06:43:29;27.33;;;25.13;;
20505;SDS011;10411;48.148;7.704;2023-02-12T06:45:55;27.37;;;25.17;;
20505;SDS011;10411;48.148;7.704;2023-02-12T06:48:24;25.63;;;23.53;;
20505;SDS011;10411;48.148;7.704;2023-02-12T06:50:50;31.73;;;29.03;;
20505;SDS011;10411;48.148;7.704;2023-02-12T06:53:16;37.83;;;34.17;;
20505;SDS011;10411;48.148;7.704;2023-02-12T06:55:42;31.43;;;28.77;;
20505;SDS011;10411;48.148;7.704;2023-02-12T06:58:08;30.10;;;27.53;;
20505;SDS011;10411;48.148;7.704;2023-02-12T07:00:34;29.47;;;26.97;;
20505;SDS011;10411;48.148;7.704;2023-02-12T07:03:00;29.83;;;27.30;;
20505;SDS011;10411;48.148;7.704;2023-02-12T07:05:26;29.83;;;27.33;;
20505;SDS011;10411;48.148;7.704;2023-02-12T07:07:52;29.50;;;27.10;;
20505;SDS011;10411;48.148;7.704;2023-02-12T07:10:18;28.30;;;26.00;;
20505;SDS011;10411;48.148;7.704;2023-02-12T07:15:31;28.17;;;25.80;;
20505;SDS011;10411;48.148;7.704;2023-02-12T07:18:16;27.17;;;24.87;;
20505;SDS011;10411;48.148;7.704;2023-02-12T07:20:42;30.87;;;28.00;;
20505;SDS011;10411;48.148;7.704;2023-02-12T07:23:11;29.97;;;27.30;;
20505;SDS011;10411;48.148;7.704;2023-02-12T07:25:38;27.73;;;25.33;;
20505;SDS011;10411;48.148;7.704;2023-02-12T07:28:04;27.90;;;25.50;;
20505;SDS011;10411;48.148;7.704;2023-02-12T07:30:29;28.13;;;25.53;;
20505;SDS011;10411;48.148;7.704;2023-02-12T07:32:55;28.87;;;26.37;;
20505;SDS011;10411;48.148;7.704;2023-02-12T07:35:21;27.73;;;25.40;;
20505;SDS011;10411;48.148;7.704;2023-02-12T07:37:47;26.20;;;23.87;;
20505;SDS011;10411;48.148;7.704;2023-02-12T07:40:13;25.27;;;23.20;;
20505;SDS011;10411;48.148;7.704;2023-02-12T07:42:39;26.27;;;24.07;;
20505;SDS011;10411;48.148;7.704;2023-02-12T07:45:05;27.47;;;25.07;;
20505;SDS011;10411;48.148;7.704;2023-02-12T07:47:31;27.47;;;25.07;;
20505;SDS011;10411;48.148;7.704;2023-02-12T07:49:59;25.23;;;23.23;;
20505;SDS011;10411;48.148;7.704;2023-02-12T07:52:25;25.97;;;23.67;;
20505;SDS011;10411;48.148;7.704;2023-02-12T07:54:51;28.80;;;26.23;;
20505;SDS011;10411;48.148;7.704;2023-02-12T07:57:17;27.53;;;25.33;;
20505;SDS011;10411;48.148;7.704;2023-02-12T07:59:43;27.17;;;24.97;;
20505;SDS011;10411;48.148;7.704;2023-02-12T08:02:09;30.07;;;27.27;;
20505;SDS011;10411;48.148;7.704;2023-02-12T08:04:35;28.60;;;26.03;;
20505;SDS011;10411;48.148;7.704;2023-02-12T08:07:01;32.70;;;29.60;;
20505;SDS011;10411;48.148;7.704;2023-02-12T08:09:27;32.30;;;29.30;;
20505;SDS011;10411;48.148;7.704;2023-02-12T08:11:54;30.53;;;27.83;;
20505;SDS011;10411;48.148;7.704;2023-02-12T08:14:21;31.77;;;28.83;;
20505;SDS011;10411;48.148;7.704;2023-02-12T08:16:47;30.13;;;27.53;;
20505;SDS011;10411;48.148;7.704;2023-02-12T08:19:13;27.57;;;25.30;;
20505;SDS011;10411;48.148;7.704;2023-02-12T08:21:39;27.67;;;25.37;;
20505;SDS011;10411;48.148;7.704;2023-02-12T08:24:05;27.80;;;25.40;;
20505;SDS011;10411;48.148;7.704;2023-02-12T08:26:32;29.40;;;26.80;;
20505;SDS011;10411;48.148;7.704;2023-02-12T08:29:20;28.37;;;26.00;;
20505;SDS011;10411;48.148;7.704;2023-02-12T08:31:46;29.37;;;26.67;;
20505;SDS011;10411;48.148;7.704;2023-02-12T08:34:16;28.77;;;26.27;;
20505;SDS011;10411;48.148;7.704;2023-02-12T08:36:42;28.87;;;26.27;;
20505;SDS011;10411;48.148;7.704;2023-02-12T08:39:08;28.20;;;25.73;;
20505;SDS011;10411;48.148;7.704;2023-02-12T08:41:35;29.33;;;26.83;;
20505;SDS011;10411;48.148;7.704;2023-02-12T08:44:02;29.07;;;26.37;;
20505;SDS011;10411;48.148;7.704;2023-02-12T08:46:29;27.40;;;25.00;;
20505;SDS011;10411;48.148;7.704;2023-02-12T08:48:56;27.97;;;25.60;;
20505;SDS011;10411;48.148;7.704;2023-02-12T08:51:24;27.43;;;25.17;;
20505;SDS011;10411;48.148;7.704;2023-02-12T08:53:51;27.73;;;25.43;;
20505;SDS011;10411;48.148;7.704;2023-02-12T08:56:17;27.67;;;25.37;;
20505;SDS011;10411;48.148;7.704;2023-02-12T08:58:44;27.13;;;24.80;;
20505;SDS011;10411;48.148;7.704;2023-02-12T09:01:16;27.67;;;25.27;;
20505;SDS011;10411;48.148;7.704;2023-02-12T09:03:43;27.10;;;25.00;;
20505;SDS011;10411;48.148;7.704;2023-02-12T09:06:09;26.97;;;24.67;;
20505;SDS011;10411;48.148;7.704;2023-02-12T09:08:36;26.10;;;24.05;;
20505;SDS011;10411;48.148;7.704;2023-02-12T09:11:05;25.83;;;23.83;;
20505;SDS011;10411;48.148;7.704;2023-02-12T09:13:32;25.60;;;23.60;;
20505;SDS011;10411;48.148;7.704;2023-02-12T09:15:59;25.90;;;23.70;;
20505;SDS011;10411;48.148;7.704;2023-02-12T09:18:25;24.70;;;22.80;;
20505;SDS011;10411;48.148;7.704;2023-02-12T09:20:51;24.67;;;22.77;;
20505;SDS011;10411;48.148;7.704;2023-02-12T09:23:17;24.63;;;22.63;;
20505;SDS011;10411;48.148;7.704;2023-02-12T09:25:43;26.53;;;24.37;;
20505;SDS011;10411;48.148;7.704;2023-02-12T09:28:10;26.83;;;24.70;;
20505;SDS011;10411;48.148;7.704;2023-02-12T09:30:36;28.03;;;25.67;;
20505;SDS011;10411;48.148;7.704;2023-02-12T09:33:03;28.10;;;25.75;;
20505;SDS011;10411;48.148;7.704;2023-02-12T09:35:29;27.45;;;25.15;;
20505;SDS011;10411;48.148;7.704;2023-02-12T09:37:55;27.80;;;25.33;;
20505;SDS011;10411;48.148;7.704;2023-02-12T09:40:23;27.43;;;25.13;;
20505;SDS011;10411;48.148;7.704;2023-02-12T09:43:05;28.47;;;26.00;;
20505;SDS011;10411;48.148;7.704;2023-02-12T09:45:40;26.43;;;24.30;;
20505;SDS011;10411;48.148;7.704;2023-02-12T09:50:56;26.50;;;24.40;;
20505;SDS011;10411;48.148;7.704;2023-02-12T09:53:24;27.23;;;24.80;;
20505;SDS011;10411;48.148;7.704;2023-02-12T09:55:52;27.50;;;25.20;;
20505;SDS011;10411;48.148;7.704;2023-02-12T09:58:23;26.07;;;23.97;;
20505;SDS011;10411;48.148;7.704;2023-02-12T10:00:53;28.27;;;25.87;;
20505;SDS011;10411;48.148;7.704;2023-02-12T10:03:19;26.70;;;24.60;;
20505;SDS011;10411;48.148;7.704;2023-02-12T10:05:48;27.93;;;25.57;;
20505;SDS011;10411;48.148;7.704;2023-02-12T10:11:18;27.27;;;25.10;;
20505;SDS011;10411;48.148;7.704;2023-02-12T10:14:09;27.30;;;25.20;;
20505;SDS011;10411;48.148;7.704;2023-02-12T10:19:21;25.90;;;23.70;;
20505;SDS011;10411;48.148;7.704;2023-02-12T10:24:30;25.13;;;23.27;;
20505;SDS011;10411;48.148;7.704;2023-02-12T10:27:06;26.23;;;24.13;;
20505;SDS011;10411;48.148;7.704;2023-02-12T10:29:35;25.47;;;23.50;;
20505;SDS011;10411;48.148;7.704;2023-02-12T10:32:08;25.10;;;23.20;;
20505;SDS011;10411;48.148;7.704;2023-02-12T10:34:36;25.53;;;23.50;;
20505;SDS011;10411;48.148;7.704;2023-02-12T10:39:49;25.77;;;23.67;;
20505;SDS011;10411;48.148;7.704;2023-02-12T10:42:20;25.70;;;23.70;;
20505;SDS011;10411;48.148;7.704;2023-02-12T10:44:47;26.47;;;24.30;;
20505;SDS011;10411;48.148;7.704;2023-02-12T10:47:17;24.73;;;22.80;;
20505;SDS011;10411;48.148;7.704;2023-02-12T10:49:44;25.63;;;23.63;;
20505;SDS011;10411;48.148;7.704;2023-02-12T10:54:43;24.63;;;22.83;;
20505;SDS011;10411;48.148;7.704;2023-02-12T10:59:42;24.90;;;23.10;;
20505;SDS011;10411;48.148;7.704;2023-02-12T11:02:22;23.97;;;22.13;;
20505;SDS011;10411;48.148;7.704;2023-02-12T11:04:49;25.13;;;23.10;;
20505;SDS011;10411;48.148;7.704;2023-02-12T11:07:15;26.33;;;24.00;;
20505;SDS011;10411;48.148;7.704;2023-02-12T11:09:45;25.33;;;23.37;;
20505;SDS011;10411;48.148;7.704;2023-02-12T11:12:33;24.57;;;22.73;;
20505;SDS011;10411;48.148;7.704;2023-02-12T11:15:19;23.17;;;21.57;;
20505;SDS011;10411;48.148;7.704;2023-02-12T11:20:25;23.70;;;21.77;;
20505;SDS011;10411;48.148;7.704;2023-02-12T11:25:18;23.00;;;21.37;;
20505;SDS011;10411;48.148;7.704;2023-02-12T11:27:46;23.23;;;21.50;;
20505;SDS011;10411;48.148;7.704;2023-02-12T11:30:23;22.30;;;20.70;;
20505;SDS011;10411;48.148;7.704;2023-02-12T11:32:49;20.83;;;19.50;;
20505;SDS011;10411;48.148;7.704;2023-02-12T11:35:17;20.57;;;19.20;;
20505;SDS011;10411;48.148;7.704;2023-02-12T11:37:49;21.10;;;19.70;;
20505;SDS011;10411;48.148;7.704;2023-02-12T11:40:18;21.63;;;20.13;;
20505;SDS011;10411;48.148;7.704;2023-02-12T11:42:46;21.87;;;20.27;;
20505;SDS011;10411;48.148;7.704;2023-02-12T11:45:15;21.23;;;19.90;;
20505;SDS011;10411;48.148;7.704;2023-02-12T11:47:42;21.60;;;20.13;;
20505;SDS011;10411;48.148;7.704;2023-02-12T12:17:39;21.23;;;19.83;;
20505;SDS011;10411;48.148;7.704;2023-02-12T12:20:34;21.20;;;19.70;;
20505;SDS011;10411;48.148;7.704;2023-02-12T12:31:47;21.60;;;20.10;;
20505;SDS011;10411;48.148;7.704;2023-02-12T14:20:27;19.60;;;18.40;;
20505;SDS011;10411;48.148;7.704;2023-02-12T14:22:58;19.10;;;18.00;;
20505;SDS011;10411;48.148;7.704;2023-02-12T14:25:29;18.67;;;17.57;;
20505;SDS011;10411;48.148;7.704;2023-02-12T14:30:27;19.53;;;18.33;;
20505;SDS011;10411;48.148;7.704;2023-02-12T14:45:32;19.87;;;18.63;;
20505;SDS011;10411;48.148;7.704;2023-02-12T14:56:21;20.40;;;19.10;;
20505;SDS011;10411;48.148;7.704;2023-02-12T14:58:55;19.40;;;18.20;;
20505;SDS011;10411;48.148;7.704;2023-02-12T15:04:35;18.77;;;17.67;;
20505;SDS011;10411;48.148;7.704;2023-02-12T15:07:08;18.50;;;17.40;;
20505;SDS011;10411;48.148;7.704;2023-02-12T15:10:02;18.17;;;17.17;;
20505;SDS011;10411;48.148;7.704;2023-02-12T15:12:39;18.70;;;17.60;;
20505;SDS011;10411;48.148;7.704;2023-02-12T15:15:24;18.93;;;17.83;;
20505;SDS011;10411;48.148;7.704;2023-02-12T15:17:57;18.20;;;17.00;;
20505;SDS011;10411;48.148;7.704;2023-02-12T15:20:28;18.47;;;17.37;;
20505;SDS011;10411;48.148;7.704;2023-02-12T15:22:56;19.43;;;18.13;;
20505;SDS011;10411;48.148;7.704;2023-02-12T15:25:26;18.67;;;17.57;;
20505;SDS011;10411;48.148;7.704;2023-02-12T15:27:57;18.90;;;17.77;;
20505;SDS011;10411;48.148;7.704;2023-02-12T15:30:28;18.43;;;17.33;;
20505;SDS011;10411;48.148;7.704;2023-02-12T15:32:55;18.63;;;17.53;;
20505;SDS011;10411;48.148;7.704;2023-02-12T15:35:23;18.33;;;17.23;;
20505;SDS011;10411;48.148;7.704;2023-02-12T15:37:49;18.27;;;17.20;;
20505;SDS011;10411;48.148;7.704;2023-02-12T15:40:16;18.40;;;17.30;;
20505;SDS011;10411;48.148;7.704;2023-02-12T15:42:50;20.77;;;19.37;;
20505;SDS011;10411;48.148;7.704;2023-02-12T15:45:18;19.80;;;18.60;;
20505;SDS011;10411;48.148;7.704;2023-02-12T15:47:45;19.63;;;18.43;;
20505;SDS011;10411;48.148;7.704;2023-02-12T15:50:19;19.07;;;17.93;;
20505;SDS011;10411;48.148;7.704;2023-02-12T15:52:46;19.10;;;17.90;;
20505;SDS011;10411;48.148;7.704;2023-02-12T15:55:17;18.83;;;17.70;;
20505;SDS011;10411;48.148;7.704;2023-02-12T15:57:54;18.87;;;17.77;;
20505;SDS011;10411;48.148;7.704;2023-02-12T16:02:59;18.63;;;17.60;;
20505;SDS011;10411;48.148;7.704;2023-02-12T16:05:25;18.90;;;17.80;;
20505;SDS011;10411;48.148;7.704;2023-02-12T16:07:51;19.03;;;17.77;;
20505;SDS011;10411;48.148;7.704;2023-02-12T16:10:17;17.70;;;16.70;;
20505;SDS011;10411;48.148;7.704;2023-02-12T16:12:44;18.63;;;17.53;;
20505;SDS011;10411;48.148;7.704;2023-02-12T16:15:31;18.40;;;17.40;;
20505;SDS011;10411;48.148;7.704;2023-02-12T16:17:58;19.07;;;17.97;;
20505;SDS011;10411;48.148;7.704;2023-02-12T16:20:28;19.23;;;18.07;;
20505;SDS011;10411;48.148;7.704;2023-02-12T16:22:54;19.13;;;17.93;;
20505;SDS011;10411;48.148;7.704;2023-02-12T16:25:22;19.00;;;17.90;;
20505;SDS011;10411;48.148;7.704;2023-02-12T16:30:42;19.10;;;18.00;;
20505;SDS011;10411;48.148;7.704;2023-02-12T16:36:01;19.13;;;18.03;;
20505;SDS011;10411;48.148;7.704;2023-02-12T16:46:33;18.53;;;17.43;;
20505;SDS011;10411;48.148;7.704;2023-02-12T16:49:12;18.80;;;17.70;;
20505;SDS011;10411;48.148;7.704;2023-02-12T16:51:39;18.87;;;17.77;;
20505;SDS011;10411;48.148;7.704;2023-02-12T16:54:08;19.10;;;17.90;;
20505;SDS011;10411;48.148;7.704;2023-02-12T16:56:48;19.23;;;18.03;;
20505;SDS011;10411;48.148;7.704;2023-02-12T16:59:14;18.57;;;17.47;;
20505;SDS011;10411;48.148;7.704;2023-02-12T17:01:40;17.87;;;16.87;;
20505;SDS011;10411;48.148;7.704;2023-02-12T17:04:20;17.47;;;16.47;;
20505;SDS011;10411;48.148;7.704;2023-02-12T17:06:46;17.53;;;16.53;;
20505;SDS011;10411;48.148;7.704;2023-02-12T17:09:12;17.33;;;16.43;;
20505;SDS011;10411;48.148;7.704;2023-02-12T17:11:38;17.07;;;16.10;;
20505;SDS011;10411;48.148;7.704;2023-02-12T17:14:04;17.70;;;16.70;;
20505;SDS011;10411;48.148;7.704;2023-02-12T17:16:30;17.80;;;16.70;;
20505;SDS011;10411;48.148;7.704;2023-02-12T17:18:56;17.67;;;16.67;;
20505;SDS011;10411;48.148;7.704;2023-02-12T17:21:23;17.07;;;16.17;;
20505;SDS011;10411;48.148;7.704;2023-02-12T17:23:49;17.50;;;16.50;;
20505;SDS011;10411;48.148;7.704;2023-02-12T17:26:18;16.83;;;15.80;;
20505;SDS011;10411;48.148;7.704;2023-02-12T17:28:44;17.47;;;16.37;;
20505;SDS011;10411;48.148;7.704;2023-02-12T17:31:10;33.07;;;29.37;;
20505;SDS011;10411;48.148;7.704;2023-02-12T17:38:47;21.80;;;20.30;;
20505;SDS011;10411;48.148;7.704;2023-02-12T17:44:12;18.70;;;17.30;;
20505;SDS011;10411;48.148;7.704;2023-02-12T17:46:39;18.80;;;17.50;;
20505;SDS011;10411;48.148;7.704;2023-02-12T17:49:06;19.03;;;17.77;;
20505;SDS011;10411;48.148;7.704;2023-02-12T17:51:32;18.93;;;17.73;;
20505;SDS011;10411;48.148;7.704;2023-02-12T17:53:57;18.77;;;17.57;;
20505;SDS011;10411;48.148;7.704;2023-02-12T17:56:23;19.20;;;17.90;;
20505;SDS011;10411;48.148;7.704;2023-02-12T17:58:49;20.37;;;18.97;;
20505;SDS011;10411;48.148;7.704;2023-02-12T18:01:17;21.83;;;20.23;;
20505;SDS011;10411;48.148;7.704;2023-02-12T18:03:43;23.20;;;21.50;;
20505;SDS011;10411;48.148;7.704;2023-02-12T18:06:10;21.20;;;19.77;;
20505;SDS011;10411;48.148;7.704;2023-02-12T18:08:40;20.17;;;18.87;;
20505;SDS011;10411;48.148;7.704;2023-02-12T18:11:07;21.13;;;19.63;;
20505;SDS011;10411;48.148;7.704;2023-02-12T18:13:37;20.40;;;19.10;;
20505;SDS011;10411;48.148;7.704;2023-02-12T18:16:06;20.53;;;19.13;;
20505;SDS011;10411;48.148;7.704;2023-02-12T18:18:32;19.77;;;18.47;;
20505;SDS011;10411;48.148;7.704;2023-02-12T18:20:58;20.07;;;18.67;;
20505;SDS011;10411;48.148;7.704;2023-02-12T18:23:24;19.77;;;18.57;;
20505;SDS011;10411;48.148;7.704;2023-02-12T18:25:50;18.87;;;17.70;;
20505;SDS011;10411;48.148;7.704;2023-02-12T18:28:16;18.23;;;17.13;;
20505;SDS011;10411;48.148;7.704;2023-02-12T18:30:42;18.27;;;17.17;;
20505;SDS011;10411;48.148;7.704;2023-02-12T18:39:16;20.03;;;18.50;;
20505;SDS011;10411;48.148;7.704;2023-02-12T18:41:42;18.93;;;17.73;;
20505;SDS011;10411;48.148;7.704;2023-02-12T18:44:08;18.33;;;17.10;;
20505;SDS011;10411;48.148;7.704;2023-02-12T18:46:34;18.57;;;17.37;;
20505;SDS011;10411;48.148;7.704;2023-02-12T18:49:00;20.07;;;18.70;;
20505;SDS011;10411;48.148;7.704;2023-02-12T18:51:27;17.93;;;16.80;;